createdAt,value
2022-10-27T00:03:14.983Z,15.78
2022-10-27T00:08:45.270Z,15.84
2022-10-27T00:14:17.041Z,15.87
2022-10-27T00:19:48.518Z,15.71
2022-10-27T00:25:20.209Z,15.64
2022-10-27T00:30:52.106Z,15.52
2022-10-27T00:36:23.855Z,15.45
2022-10-27T00:41:55.580Z,15.32
2022-10-27T00:47:27.125Z,15.25
2022-10-27T00:52:59.062Z,15.26
2022-10-27T00:58:36.982Z,15.28
2022-10-27T01:04:09.218Z,15.22
2022-10-27T01:09:44.330Z,15.22
2022-10-27T01:15:12.425Z,15.13
2022-10-27T01:20:44.049Z,15.01
2022-10-27T01:26:15.854Z,14.9
2022-10-27T01:31:47.631Z,14.68
2022-10-27T01:37:19.092Z,14.71
2022-10-27T01:42:51.416Z,14.6
2022-10-27T01:48:22.469Z,14.53
2022-10-27T01:53:54.245Z,14.53
2022-10-27T01:59:30.361Z,14.49
2022-10-27T02:05:02.312Z,14.61
2022-10-27T02:10:34.501Z,14.64
2022-10-27T02:16:05.729Z,14.65
2022-10-27T02:21:37.265Z,14.72
2022-10-27T02:27:08.931Z,14.72
2022-10-27T02:32:40.667Z,14.67
2022-10-27T02:38:12.636Z,14.66
2022-10-27T02:43:44.589Z,14.71
2022-10-27T02:49:15.869Z,14.7
2022-10-27T02:54:47.590Z,14.73
2022-10-27T03:05:57.446Z,14.69
2022-10-27T03:11:29.429Z,14.62
2022-10-27T03:17:00.898Z,14.71
2022-10-27T03:22:33.039Z,14.85
2022-10-27T03:28:04.362Z,14.7
2022-10-27T03:33:36.059Z,14.75
2022-10-27T03:39:08.069Z,14.82
2022-10-27T03:44:39.561Z,14.63
2022-10-27T03:50:11.190Z,14.44
2022-10-27T03:55:43.598Z,14.44
2022-10-27T04:01:20.008Z,14.42
2022-10-27T04:06:50.782Z,14.55
2022-10-27T04:12:22.526Z,14.46
2022-10-27T04:17:54.482Z,14.38
2022-10-27T04:23:26.123Z,14.24
2022-10-27T04:28:58.154Z,14.29
2022-10-27T04:34:29.388Z,14.19
2022-10-27T04:40:02.015Z,14.18
2022-10-27T04:45:32.850Z,14.22
2022-10-27T04:51:05.243Z,14.23
2022-10-27T04:56:36.298Z,14.11
2022-10-27T05:02:12.669Z,14.0
2022-10-27T05:07:44.364Z,14.01
2022-10-27T05:13:15.934Z,14.05
2022-10-27T05:18:47.526Z,14.03
2022-10-27T05:24:19.686Z,13.97
2022-10-27T05:29:51.034Z,14.03
2022-10-27T05:35:22.986Z,13.72
2022-10-27T05:40:54.464Z,13.69
2022-10-27T05:46:26.245Z,13.71
2022-10-27T05:51:57.968Z,13.86
2022-10-27T05:57:29.702Z,13.7
2022-10-27T06:03:08.065Z,13.81
2022-10-27T06:08:39.795Z,13.87
2022-10-27T06:14:11.258Z,13.89
2022-10-27T06:19:43.666Z,14.01
2022-10-27T06:25:16.642Z,14.18
2022-10-27T06:30:46.519Z,14.3
2022-10-27T06:36:18.254Z,14.27
2022-10-27T06:41:50.233Z,14.25
2022-10-27T06:47:21.961Z,14.25
2022-10-27T06:52:53.731Z,14.16
2022-10-27T06:58:25.120Z,14.18
2022-10-27T07:04:03.266Z,14.12
2022-10-27T07:09:34.988Z,14.16
2022-10-27T07:15:06.975Z,14.29
2022-10-27T07:20:39.216Z,14.48
2022-10-27T07:26:10.230Z,14.65
2022-10-27T07:31:42.163Z,14.74
2022-10-27T07:37:13.693Z,14.92
2022-10-27T07:42:45.375Z,15.23
2022-10-27T07:48:17.216Z,15.65
2022-10-27T07:53:49.167Z,15.8
2022-10-27T07:59:20.864Z,16.71
2022-10-27T08:04:56.953Z,16.14
2022-10-27T08:10:28.375Z,16.44
2022-10-27T08:16:00.219Z,16.57
2022-10-27T08:21:31.901Z,16.88
2022-10-27T08:27:03.642Z,17.05
2022-10-27T08:32:35.388Z,17.37
2022-10-27T08:38:07.129Z,17.63
2022-10-27T08:43:38.904Z,17.67
2022-10-27T08:49:10.750Z,17.74
2022-10-27T08:54:42.409Z,17.83
2022-10-27T09:00:14.102Z,17.76
2022-10-27T09:05:52.564Z,18.1
2022-10-27T09:11:24.178Z,18.36
2022-10-27T09:16:55.668Z,18.65
2022-10-27T09:22:27.576Z,19.03
2022-10-27T09:27:59.106Z,18.64
2022-10-27T09:33:30.817Z,19.1
2022-10-27T09:39:03.183Z,19.05
2022-10-27T09:44:35.042Z,19.44
2022-10-27T09:50:06.840Z,19.77
2022-10-27T10:01:10.236Z,19.86
2022-10-27T10:06:48.384Z,20.08
2022-10-27T10:12:21.911Z,20.25
2022-10-27T10:17:51.584Z,20.42
2022-10-27T10:23:23.509Z,20.61
2022-10-27T10:28:55.375Z,20.83
2022-10-27T10:34:26.724Z,20.96
2022-10-27T10:39:58.723Z,21.08
2022-10-27T10:45:30.188Z,21.16
2022-10-27T10:51:02.446Z,21.46
2022-10-27T10:56:33.645Z,21.54
2022-10-27T11:02:05.383Z,21.76
2022-10-27T11:07:41.866Z,21.93
2022-10-27T11:13:13.210Z,22.19
2022-10-27T11:18:46.015Z,22.54
2022-10-27T11:24:16.838Z,22.61
2022-10-27T11:29:48.366Z,22.85
2022-10-27T11:35:20.145Z,23.05
2022-10-27T11:40:51.866Z,23.31
2022-10-27T11:46:23.592Z,23.45
2022-10-27T11:51:55.442Z,23.82
2022-10-27T11:57:38.784Z,23.7
2022-10-27T12:02:58.745Z,23.53
2022-10-27T12:08:39.046Z,23.85
2022-10-27T12:14:11.076Z,24.16
2022-10-27T12:19:42.462Z,24.15
2022-10-27T12:25:14.014Z,24.21
2022-10-27T12:30:46.314Z,24.27
2022-10-27T12:36:17.769Z,24.48
2022-10-27T12:41:49.265Z,24.47
2022-10-27T12:47:21.051Z,24.58
2022-10-27T12:52:53.918Z,24.53
2022-10-27T12:58:25.097Z,24.73
2022-10-27T13:03:56.889Z,24.82
2022-10-27T13:09:33.255Z,24.9
2022-10-27T13:15:05.059Z,24.85
2022-10-27T13:20:36.927Z,24.89
2022-10-27T13:26:08.919Z,24.84
2022-10-27T13:31:40.218Z,24.8
2022-10-27T13:37:11.778Z,24.55
2022-10-27T13:42:43.534Z,24.64
2022-10-27T13:48:15.344Z,24.79
2022-10-27T13:53:47.014Z,24.94
2022-10-27T13:59:18.787Z,24.91
2022-10-27T14:04:50.850Z,24.65
2022-10-27T14:10:26.791Z,24.85
2022-10-27T14:15:58.563Z,24.71
2022-10-27T14:21:30.801Z,24.85
2022-10-27T14:27:01.790Z,24.75
2022-10-27T14:32:33.905Z,24.81
2022-10-27T14:38:05.434Z,24.76
2022-10-27T14:43:38.131Z,24.78
2022-10-27T14:49:08.822Z,24.51
2022-10-27T14:54:40.589Z,24.57
2022-10-27T15:00:13.183Z,24.51
2022-10-27T15:05:44.339Z,24.31
2022-10-27T15:11:22.133Z,24.14
2022-10-27T15:16:53.906Z,24.08
2022-10-27T15:22:25.626Z,24.04
2022-10-27T15:27:57.366Z,24.1
2022-10-27T15:33:29.069Z,23.89
2022-10-27T15:39:01.298Z,23.78
2022-10-27T15:44:32.739Z,23.7
2022-10-27T15:50:04.298Z,23.55
2022-10-27T15:55:36.830Z,23.58
2022-10-27T16:01:08.482Z,23.42
2022-10-27T16:06:39.906Z,23.27
2022-10-27T16:12:15.929Z,23.12
2022-10-27T16:17:47.663Z,23.04
2022-10-27T16:23:19.369Z,22.91
2022-10-27T16:28:51.429Z,22.78
2022-10-27T16:34:25.085Z,22.62
2022-10-27T16:39:54.765Z,22.41
2022-10-27T16:45:26.570Z,22.25
2022-10-27T16:50:58.218Z,22.08
2022-10-27T16:56:29.719Z,22.0
2022-10-27T17:02:01.707Z,21.85
2022-10-27T17:07:33.182Z,21.72
2022-10-27T17:13:09.670Z,21.59
2022-10-27T17:18:41.197Z,21.44
2022-10-27T17:24:12.951Z,21.4
2022-10-27T17:29:44.767Z,21.38
2022-10-27T17:35:16.520Z,21.34
2022-10-27T17:40:47.998Z,21.34
2022-10-27T17:46:20.023Z,21.3
2022-10-27T17:51:51.596Z,21.28
2022-10-27T17:57:23.353Z,21.19
2022-10-27T18:02:55.429Z,21.06
2022-10-27T18:08:26.822Z,21.07
2022-10-27T18:14:03.481Z,20.95
2022-10-27T18:19:34.922Z,20.99
2022-10-27T18:25:07.086Z,20.86
2022-10-27T18:30:38.343Z,20.76
2022-10-27T18:36:09.800Z,20.7
2022-10-27T18:41:41.910Z,20.63
2022-10-27T18:47:13.465Z,20.46
2022-10-27T18:52:45.371Z,20.41
2022-10-27T18:58:16.992Z,20.37
2022-10-27T19:03:52.481Z,20.37
2022-10-27T19:09:20.698Z,20.36
2022-10-27T19:14:58.770Z,20.3
2022-10-27T19:20:30.254Z,20.37
2022-10-27T19:26:01.977Z,20.22
2022-10-27T19:31:34.150Z,20.1
2022-10-27T19:37:05.465Z,20.16
2022-10-27T19:42:37.486Z,20.21
2022-10-27T19:48:09.421Z,20.1
2022-10-27T19:53:40.963Z,20.06
2022-10-27T19:59:12.645Z,19.99
2022-10-27T20:04:44.097Z,20.04
2022-10-27T20:10:16.015Z,19.92
2022-10-27T20:15:53.967Z,19.93
2022-10-27T20:21:25.653Z,19.85
2022-10-27T20:26:57.618Z,19.86
2022-10-27T20:32:29.172Z,19.72
2022-10-27T20:38:00.885Z,19.71
2022-10-27T20:43:32.898Z,19.58
2022-10-27T20:49:04.567Z,19.47
2022-10-27T20:54:36.402Z,19.41
2022-10-27T21:00:07.774Z,19.4
2022-10-27T21:05:39.475Z,19.36
2022-10-27T21:11:11.467Z,19.22
2022-10-27T21:16:48.809Z,19.01
2022-10-27T21:22:19.022Z,19.07
2022-10-27T21:27:50.925Z,19.11
2022-10-27T21:33:22.754Z,19.09
2022-10-27T21:38:54.506Z,19.02
2022-10-27T21:44:26.207Z,19.04
2022-10-27T21:49:57.946Z,18.94
2022-10-27T21:55:29.464Z,18.82
2022-10-27T22:01:01.216Z,18.87
2022-10-27T22:06:33.810Z,18.77
2022-10-27T22:12:04.650Z,18.65
2022-10-27T22:17:42.704Z,18.72
2022-10-27T22:23:14.720Z,18.65
2022-10-27T22:28:46.132Z,18.53
2022-10-27T22:34:18.178Z,18.47
2022-10-27T22:39:49.593Z,18.41
2022-10-27T22:45:21.334Z,18.21
2022-10-27T22:50:53.062Z,18.32
2022-10-27T22:56:24.951Z,18.21
2022-10-27T23:01:56.843Z,18.2
2022-10-27T23:07:28.462Z,18.38
2022-10-27T23:13:00.219Z,18.43
2022-10-27T23:18:36.059Z,18.48
2022-10-27T23:24:07.815Z,18.54
2022-10-27T23:29:39.590Z,18.61
2022-10-27T23:35:11.447Z,18.5
2022-10-27T23:40:43.005Z,18.38
2022-10-27T23:46:14.766Z,18.27
2022-10-27T23:51:46.438Z,18.19
2022-10-27T23:57:18.097Z,18.17
